Yao, Japan
Current Conditions -  °F | °C
As of 4:00 PM on Friday 28 Nov 2014 (Local Time) from RJOO Reporting Station
Broken Clouds Broken Clouds  
Wind Chill: 66°   Ceiling: Unl
Heat Index: 66°   Visibility: 6mi
Dew Point: 50°   Wind: 3mph
Humidity: 56%   Direction: 160°SSE
Pressure: 30.09"   Gusts: NA
Location:  34.63°N, 135.58°E
Report Text: RJOO 280700Z 16003KT 9999 FEW025 BKN/// 19/10 Q1019
Loading
Personal Weather Stations






























Interactive Weather Map New forecast layout! Learn more

10-Day Weather Forecast

Advertisements
Track Severe Weather on mobile